sensor_id;sensor_type;location;lat;lon;timestamp;pressure;altitude;pressure_sealevel;temperature;humidity
7180;BME280;3631;42.152;24.756;2023-04-27T16:55:37;149044.81;;;15.80;46.01
7180;BME280;3631;42.152;24.756;2023-04-27T16:58:13;149034.72;;;15.76;45.73
7180;BME280;3631;42.152;24.756;2023-04-27T17:00:54;149001.88;;;15.63;45.49
7180;BME280;3631;42.152;24.756;2023-04-27T17:03:33;149008.19;;;15.65;46.35
7180;BME280;3631;42.152;24.756;2023-04-27T17:06:08;149022.06;;;15.71;46.38
7180;BME280;3631;42.152;24.756;2023-04-27T17:08:48;149012.00;;;15.67;46.56
7180;BME280;3631;42.152;24.756;2023-04-27T17:11:29;149003.16;;;15.63;46.92
7180;BME280;3631;42.152;24.756;2023-04-27T17:14:06;149003.16;;;15.63;47.08
7180;BME280;3631;42.152;24.756;2023-04-27T17:16:50;149005.69;;;15.64;47.21
7180;BME280;3631;42.152;24.756;2023-04-27T17:19:38;149017.06;;;15.69;47.48
7180;BME280;3631;42.152;24.756;2023-04-27T17:22:18;149004.41;;;15.64;47.26
7180;BME280;3631;42.152;24.756;2023-04-27T17:25:04;148991.78;;;15.58;47.27
7180;BME280;3631;42.152;24.756;2023-04-27T17:28:17;148980.38;;;15.54;47.05
7180;BME280;3631;42.152;24.756;2023-04-27T17:31:06;148950.09;;;15.42;47.20
7180;BME280;3631;42.152;24.756;2023-04-27T17:33:39;148932.44;;;15.35;47.33
7180;BME280;3631;42.152;24.756;2023-04-27T17:36:16;148922.31;;;15.31;47.28
7180;BME280;3631;42.152;24.756;2023-04-27T17:38:58;148904.69;;;15.23;46.70
7180;BME280;3631;42.152;24.756;2023-04-27T17:41:40;148897.09;;;15.20;47.15
7180;BME280;3631;42.152;24.756;2023-04-27T17:44:15;148899.63;;;15.21;46.86
7180;BME280;3631;42.152;24.756;2023-04-27T17:46:48;148886.97;;;15.16;47.57
7180;BME280;3631;42.152;24.756;2023-04-27T17:49:27;148888.25;;;15.17;47.00
7180;BME280;3631;42.152;24.756;2023-04-27T17:51:56;148909.69;;;15.25;46.91
7180;BME280;3631;42.152;24.756;2023-04-27T17:54:27;148892.03;;;15.18;46.78
7180;BME280;3631;42.152;24.756;2023-04-27T17:56:57;148888.25;;;15.17;46.96
7180;BME280;3631;42.152;24.756;2023-04-27T17:59:42;148878.13;;;15.13;47.47
7180;BME280;3631;42.152;24.756;2023-04-27T18:02:25;148883.19;;;15.15;47.14
7180;BME280;3631;42.152;24.756;2023-04-27T18:05:12;148856.69;;;15.04;47.43
7180;BME280;3631;42.152;24.756;2023-04-27T18:07:45;148823.88;;;14.91;47.49
7180;BME280;3631;42.152;24.756;2023-04-27T18:10:37;148823.88;;;14.91;47.89
7180;BME280;3631;42.152;24.756;2023-04-27T18:13:14;148820.16;;;14.89;47.38
7180;BME280;3631;42.152;24.756;2023-04-27T18:16:06;148818.88;;;14.89;47.22
7180;BME280;3631;42.152;24.756;2023-04-27T18:18:41;148815.09;;;14.87;47.30
7180;BME280;3631;42.152;24.756;2023-04-27T18:21:13;148777.22;;;14.72;47.50
7180;BME280;3631;42.152;24.756;2023-04-27T18:23:45;148763.38;;;14.67;47.31
7180;BME280;3631;42.152;24.756;2023-04-27T18:26:20;148754.53;;;14.63;47.01
7180;BME280;3631;42.152;24.756;2023-04-27T18:28:53;148755.78;;;14.64;46.63
7180;BME280;3631;42.152;24.756;2023-04-27T18:31:21;148753.28;;;14.63;46.47
7180;BME280;3631;42.152;24.756;2023-04-27T18:33:49;148752.00;;;14.62;46.74
7180;BME280;3631;42.152;24.756;2023-04-27T18:36:17;148753.28;;;14.63;46.72
7180;BME280;3631;42.152;24.756;2023-04-27T18:38:46;148739.38;;;14.57;46.79
7180;BME280;3631;42.152;24.756;2023-04-27T18:41:19;148746.94;;;14.60;47.07
7180;BME280;3631;42.152;24.756;2023-04-27T18:44:07;148749.47;;;14.61;46.89
7180;BME280;3631;42.152;24.756;2023-04-27T18:47:02;148734.38;;;14.55;46.83
7180;BME280;3631;42.152;24.756;2023-04-27T18:49:49;148740.63;;;14.58;46.41
7180;BME280;3631;42.152;24.756;2023-04-27T18:52:41;148739.38;;;14.57;46.79
7180;BME280;3631;42.152;24.756;2023-04-27T18:55:15;148738.09;;;14.57;47.19
7180;BME280;3631;42.152;24.756;2023-04-27T18:57:47;148720.47;;;14.49;47.22
7180;BME280;3631;42.152;24.756;2023-04-27T19:00:19;148711.63;;;14.46;47.73
7180;BME280;3631;42.152;24.756;2023-04-27T19:02:48;148704.09;;;14.43;47.70
7180;BME280;3631;42.152;24.756;2023-04-27T19:05:19;148709.09;;;14.45;47.61
7180;BME280;3631;42.152;24.756;2023-04-27T19:07:47;148705.34;;;14.43;47.79
7180;BME280;3631;42.152;24.756;2023-04-27T19:10:20;148716.69;;;14.48;47.51
7180;BME280;3631;42.152;24.756;2023-04-27T19:12:49;148705.34;;;14.43;47.52
7180;BME280;3631;42.152;24.756;2023-04-27T19:15:23;148700.31;;;14.41;47.33
7180;BME280;3631;42.152;24.756;2023-04-27T19:17:56;148695.25;;;14.39;47.93
7180;BME280;3631;42.152;24.756;2023-04-27T19:20:25;148717.94;;;14.48;47.32
7180;BME280;3631;42.152;24.756;2023-04-27T19:22:54;148717.94;;;14.48;46.89
7180;BME280;3631;42.152;24.756;2023-04-27T19:25:28;148712.88;;;14.46;46.89
7180;BME280;3631;42.152;24.756;2023-04-27T19:27:58;148715.41;;;14.47;47.08
7180;BME280;3631;42.152;24.756;2023-04-27T19:30:30;148714.16;;;14.47;47.48
7180;BME280;3631;42.152;24.756;2023-04-27T19:33:03;148723.00;;;14.50;47.52
7180;BME280;3631;42.152;24.756;2023-04-27T19:35:34;148715.41;;;14.47;47.66
7180;BME280;3631;42.152;24.756;2023-04-27T19:38:05;148720.47;;;14.49;47.61
7180;BME280;3631;42.152;24.756;2023-04-27T19:40:38;148720.47;;;14.49;47.67
7180;BME280;3631;42.152;24.756;2023-04-27T19:43:09;148706.63;;;14.44;47.99
7180;BME280;3631;42.152;24.756;2023-04-27T19:45:38;148702.84;;;14.42;47.73
7180;BME280;3631;42.152;24.756;2023-04-27T19:48:11;148700.31;;;14.41;48.00
7180;BME280;3631;42.152;24.756;2023-04-27T19:50:40;148675.03;;;14.31;48.59
7180;BME280;3631;42.152;24.756;2023-04-27T19:53:11;148663.66;;;14.27;49.18
7180;BME280;3631;42.152;24.756;2023-04-27T19:55:45;148675.03;;;14.31;48.78
7180;BME280;3631;42.152;24.756;2023-04-27T19:58:12;148675.03;;;14.31;49.02
7180;BME280;3631;42.152;24.756;2023-04-27T20:00:47;148657.34;;;14.24;48.77
7180;BME280;3631;42.152;24.756;2023-04-27T20:03:22;148652.31;;;14.22;49.27
7180;BME280;3631;42.152;24.756;2023-04-27T20:05:54;148654.84;;;14.23;49.09
7180;BME280;3631;42.152;24.756;2023-04-27T20:08:25;148638.47;;;14.16;48.98
7180;BME280;3631;42.152;24.756;2023-04-27T20:11:01;148637.19;;;14.16;49.26
7180;BME280;3631;42.152;24.756;2023-04-27T20:13:31;148649.81;;;14.21;49.20
7180;BME280;3631;42.152;24.756;2023-04-27T20:16:03;148658.63;;;14.25;49.37
7180;BME280;3631;42.152;24.756;2023-04-27T20:19:00;148649.81;;;14.21;49.04
7180;BME280;3631;42.152;24.756;2023-04-27T20:21:40;148637.19;;;14.16;49.37
7180;BME280;3631;42.152;24.756;2023-04-27T20:27:21;148604.41;;;14.03;49.38
7180;BME280;3631;42.152;24.756;2023-04-27T20:30:27;148629.63;;;14.13;49.80
7180;BME280;3631;42.152;24.756;2023-04-27T20:33:31;148619.56;;;14.09;50.06
7180;BME280;3631;42.152;24.756;2023-04-27T20:39:45;148669.97;;;14.29;49.14
7180;BME280;3631;42.152;24.756;2023-04-27T20:42:19;148699.03;;;14.41;48.71
7180;BME280;3631;42.152;24.756;2023-04-27T20:45:20;148702.84;;;14.42;48.65
7180;BME280;3631;42.152;24.756;2023-04-27T20:48:09;148706.63;;;14.44;48.42
7180;BME280;3631;42.152;24.756;2023-04-27T20:51:09;148690.16;;;14.37;48.89
7180;BME280;3631;42.152;24.756;2023-04-27T20:54:13;148695.25;;;14.39;48.88
7180;BME280;3631;42.152;24.756;2023-04-27T21:00:25;148668.72;;;14.29;49.53
7180;BME280;3631;42.152;24.756;2023-04-27T21:03:46;148652.31;;;14.22;50.07
7180;BME280;3631;42.152;24.756;2023-04-27T21:06:45;148662.41;;;14.26;50.47
7180;BME280;3631;42.152;24.756;2023-04-27T21:09:49;148653.56;;;14.23;50.67
7180;BME280;3631;42.152;24.756;2023-04-27T21:12:55;148632.16;;;14.14;51.08
7180;BME280;3631;42.152;24.756;2023-04-27T21:16:09;148635.94;;;14.15;50.99
7180;BME280;3631;42.152;24.756;2023-04-27T21:18:50;148638.47;;;14.16;50.79
7180;BME280;3631;42.152;24.756;2023-04-27T21:21:43;148615.78;;;14.07;51.41
7180;BME280;3631;42.152;24.756;2023-04-27T21:24:57;148605.66;;;14.03;50.75
7180;BME280;3631;42.152;24.756;2023-04-27T21:27:40;148595.63;;;13.99;50.72
7180;BME280;3631;42.152;24.756;2023-04-27T21:30:41;148576.66;;;13.92;50.92
7180;BME280;3631;42.152;24.756;2023-04-27T21:36:55;148560.31;;;13.85;51.18
7180;BME280;3631;42.152;24.756;2023-04-27T21:40:00;148527.53;;;13.72;51.24
7180;BME280;3631;42.152;24.756;2023-04-27T21:42:54;148521.22;;;13.69;51.07
7180;BME280;3631;42.152;24.756;2023-04-27T21:49:12;148479.66;;;13.53;51.18
7180;BME280;3631;42.152;24.756;2023-04-27T21:52:10;148482.16;;;13.54;50.62
7180;BME280;3631;42.152;24.756;2023-04-27T21:55:07;148477.13;;;13.52;50.62
7180;BME280;3631;42.152;24.756;2023-04-27T21:57:58;148475.84;;;13.51;50.38
7180;BME280;3631;42.152;24.756;2023-04-27T22:00:46;148459.44;;;13.44;50.64
7180;BME280;3631;42.152;24.756;2023-04-27T22:03:34;148444.34;;;13.38;50.89
7180;BME280;3631;42.152;24.756;2023-04-27T22:09:45;148422.94;;;13.30;49.91
7180;BME280;3631;42.152;24.756;2023-04-27T22:12:44;148410.31;;;13.25;50.10
7180;BME280;3631;42.152;24.756;2023-04-27T22:15:43;148415.38;;;13.27;49.82
7180;BME280;3631;42.152;24.756;2023-04-27T22:18:55;148420.41;;;13.29;49.34
7180;BME280;3631;42.152;24.756;2023-04-27T22:22:09;148397.75;;;13.20;49.21
7180;BME280;3631;42.152;24.756;2023-04-27T22:28:22;148393.94;;;13.18;48.82
7180;BME280;3631;42.152;24.756;2023-04-27T22:31:11;148410.31;;;13.25;48.84
7180;BME280;3631;42.152;24.756;2023-04-27T22:34:04;148399.00;;;13.20;48.62
7180;BME280;3631;42.152;24.756;2023-04-27T22:37:12;148406.53;;;13.23;48.63
7180;BME280;3631;42.152;24.756;2023-04-27T22:40:18;148392.69;;;13.18;48.63
7180;BME280;3631;42.152;24.756;2023-04-27T22:43:13;148385.13;;;13.15;48.75
7180;BME280;3631;42.152;24.756;2023-04-27T22:46:16;148387.63;;;13.16;48.82
7180;BME280;3631;42.152;24.756;2023-04-27T22:48:57;148390.16;;;13.17;49.26
7180;BME280;3631;42.152;24.756;2023-04-27T22:51:44;148393.94;;;13.18;48.81
7180;BME280;3631;42.152;24.756;2023-04-27T22:54:45;148377.50;;;13.12;48.90
7180;BME280;3631;42.152;24.756;2023-04-27T23:01:12;148334.69;;;12.94;48.66
7180;BME280;3631;42.152;24.756;2023-04-27T23:04:02;148319.53;;;12.88;48.87
7180;BME280;3631;42.152;24.756;2023-04-27T23:06:45;148309.50;;;12.84;48.93
7180;BME280;3631;42.152;24.756;2023-04-27T23:10:09;148306.97;;;12.83;48.78
7180;BME280;3631;42.152;24.756;2023-04-27T23:13:27;148298.16;;;12.80;48.73
7180;BME280;3631;42.152;24.756;2023-04-27T23:19:44;148284.31;;;12.74;48.25
7180;BME280;3631;42.152;24.756;2023-04-27T23:22:43;148285.56;;;12.75;48.18
7180;BME280;3631;42.152;24.756;2023-04-27T23:25:54;148261.59;;;12.65;48.40
7180;BME280;3631;42.152;24.756;2023-04-27T23:28:43;148259.13;;;12.64;48.58
7180;BME280;3631;42.152;24.756;2023-04-27T23:31:41;148247.78;;;12.59;48.38
7180;BME280;3631;42.152;24.756;2023-04-27T23:38:04;148251.56;;;12.61;48.44
7180;BME280;3631;42.152;24.756;2023-04-27T23:44:20;148196.16;;;12.39;49.02
7180;BME280;3631;42.152;24.756;2023-04-27T23:47:37;148168.44;;;12.27;49.15
7180;BME280;3631;42.152;24.756;2023-04-27T23:50:33;148172.25;;;12.29;49.44
